Time;durP1;ratioP1;P1;durP2;ratioP2;P2;SDS_P1;SDS_P2;PMS_P1;PMS_P2;Temp;Humidity;BMP_temperature;BMP_pressure;BME280_temperature;BME280_humidity;BME280_pressure;Samples;Min_cycle;Max_cycle;Signal;HPM_P1;HPM_P2
2022/01/09 00:01:25;;;;;;;1.80;1.70;;;;;;;21.03;42.41;98319.48;1821668;77;28280;-64
2022/01/09 00:04:14;;;;;;;2.00;1.63;;;;;;;21.01;42.48;98292.45;1835397;76;28241;-63
2022/01/09 00:07:03;;;;;;;1.90;1.70;;;;;;;21.02;42.49;98274.16;1836208;77;28909;-65
2022/01/09 00:09:51;;;;;;;1.80;1.70;;;;;;;20.99;42.45;98293.24;1829299;76;28384;-66
2022/01/09 00:12:40;;;;;;;2.03;1.80;;;;;;;21.01;42.47;98277.43;1834243;76;28346;-65
2022/01/09 00:15:28;;;;;;;2.83;1.60;;;;;;;21.04;42.46;98287.02;1831919;76;28554;-65
2022/01/09 00:18:16;;;;;;;2.60;1.60;;;;;;;21.03;42.40;98278.53;1831162;76;28245;-67
2022/01/09 00:21:05;;;;;;;1.72;1.62;;;;;;;21.02;42.42;98261.88;1833747;76;28388;-67
2022/01/09 00:23:54;;;;;;;1.73;1.63;;;;;;;21.04;42.41;98281.56;1829398;76;28292;-69
2022/01/09 00:26:46;;;;;;;2.10;1.62;;;;;;;20.98;42.53;98286.68;1797446;77;28356;-68
2022/01/09 00:29:35;;;;;;;1.90;1.70;;;;;;;20.99;42.47;98286.95;1832449;76;32328;-67
2022/01/09 00:32:23;;;;;;;3.37;1.85;;;;;;;21.02;42.42;98277.73;1831016;76;28638;-69
2022/01/09 00:35:13;;;;;;;3.05;1.72;;;;;;;21.05;42.42;98281.33;1834205;76;28198;-68
2022/01/09 00:38:02;;;;;;;2.05;1.70;;;;;;;21.08;42.35;98260.88;1830728;76;36269;-69
2022/01/09 00:40:50;;;;;;;1.80;1.70;;;;;;;21.05;42.32;98291.45;1833019;76;28241;-68
2022/01/09 00:43:39;;;;;;;3.25;1.80;;;;;;;21.03;42.29;98278.00;1831239;76;28340;-68
2022/01/09 00:46:27;;;;;;;1.87;1.70;;;;;;;21.03;42.32;98286.19;1820904;77;28183;-68
2022/01/09 00:49:15;;;;;;;1.70;1.60;;;;;;;21.06;42.54;98313.56;1836446;77;28270;-69
2022/01/09 00:52:05;;;;;;;1.70;1.60;;;;;;;21.06;42.54;98313.56;1827872;76;28305;-69
2022/01/09 00:54:53;;;;;;;1.92;1.65;;;;;;;21.03;42.25;98320.31;1796492;77;30211;-69
2022/01/09 00:57:42;;;;;;;2.43;1.73;;;;;;;21.04;42.29;98342.98;1806043;76;28328;-69
2022/01/09 01:00:31;;;;;;;1.70;1.60;;;;;;;21.04;42.27;98352.55;1816639;76;28207;-68
2022/01/09 01:03:20;;;;;;;1.93;1.73;;;;;;;20.98;42.27;98335.25;1766777;78;28318;-67
2022/01/09 01:06:09;;;;;;;1.52;1.50;;;;;;;21.00;42.33;98327.67;1774678;80;28402;-69
2022/01/09 01:08:57;;;;;;;1.70;1.60;;;;;;;21.00;42.31;98335.02;1819451;78;28230;-68
2022/01/09 01:11:48;;;;;;;1.60;1.50;;;;;;;20.98;42.28;98348.11;1825476;78;28197;-68
2022/01/09 01:14:38;;;;;;;1.80;1.50;;;;;;;20.96;42.36;98337.41;1823380;76;28245;-68
2022/01/09 01:17:27;;;;;;;1.62;1.52;;;;;;;20.99;42.32;98351.10;1820975;78;28315;-67
2022/01/09 01:20:20;;;;;;;1.60;1.50;;;;;;;20.98;42.29;98354.93;1825306;78;28237;-68
2022/01/09 01:23:05;;;;;;;1.52;1.42;;;;;;;20.99;42.26;98354.66;1821175;77;28188;-70
2022/01/09 01:26:00;;;;;;;1.80;1.70;;;;;;;20.98;42.25;98346.17;1826396;78;28200;-67
2022/01/09 01:28:44;;;;;;;1.57;1.50;;;;;;;21.01;42.26;98330.66;1820419;77;28279;-68
2022/01/09 01:31:33;;;;;;;2.10;1.67;;;;;;;21.00;42.29;98330.40;1826034;78;28229;-68
2022/01/09 01:34:22;;;;;;;1.70;1.60;;;;;;;21.01;42.25;98323.01;1833003;77;28351;-68
2022/01/09 01:37:10;;;;;;;1.77;1.67;;;;;;;21.02;42.25;98313.22;1835402;77;28316;-68
2022/01/09 01:39:59;;;;;;;1.67;1.52;;;;;;;20.97;42.30;98321.34;1829772;76;28341;-70
2022/01/09 01:42:48;;;;;;;1.75;1.65;;;;;;;20.99;42.31;98345.11;1820338;76;28187;-69
2022/01/09 01:45:38;;;;;;;1.87;1.50;;;;;;;20.97;42.28;98347.80;1840990;76;28279;-67
2022/01/09 01:48:26;;;;;;;3.20;1.47;;;;;;;20.97;42.34;98323.23;1836825;77;28260;-67
2022/01/09 01:51:16;;;;;;;1.60;1.50;;;;;;;21.00;42.29;98344.58;1835551;76;28275;-68
2022/01/09 01:54:05;;;;;;;1.77;1.55;;;;;;;21.00;42.31;98343.22;1816189;77;31254;-68
2022/01/09 01:56:55;;;;;;;1.60;1.47;;;;;;;21.01;42.26;98342.12;1837513;76;28176;-68
2022/01/09 01:59:44;;;;;;;1.52;1.42;;;;;;;21.02;42.23;98330.13;1803069;78;28328;-68
2022/01/09 02:02:34;;;;;;;1.52;1.42;;;;;;;21.00;42.26;98329.56;1812386;77;28299;-69
2022/01/09 02:05:23;;;;;;;1.50;1.40;;;;;;;21.03;42.29;98308.56;1837080;77;28245;-67
2022/01/09 02:08:13;;;;;;;2.40;1.50;;;;;;;21.01;42.24;98307.99;1825963;78;28321;-68
2022/01/09 02:11:02;;;;;;;1.50;1.40;;;;;;;21.03;42.25;98301.73;1862440;76;28193;-67
2022/01/09 02:13:52;;;;;;;1.60;1.50;;;;;;;21.03;42.25;98301.73;1817373;76;28168;-67
2022/01/09 02:16:43;;;;;;;1.57;1.47;;;;;;;21.04;42.21;98317.91;1826053;78;28237;-68
2022/01/09 02:19:33;;;;;;;1.60;1.50;;;;;;;21.03;42.20;98331.23;1814929;77;28236;-67
2022/01/09 02:22:24;;;;;;;1.60;1.50;;;;;;;21.04;42.26;98388.03;1819854;76;28182;-67
2022/01/09 02:25:14;;;;;;;1.50;1.40;;;;;;;21.05;42.19;98385.64;1849076;76;28151;-67
2022/01/09 02:28:04;;;;;;;1.62;1.50;;;;;;;21.04;42.20;98409.88;1809584;78;28240;-67
2022/01/09 02:30:53;;;;;;;1.50;1.40;;;;;;;21.04;42.18;98460.39;1833826;77;28185;-67
2022/01/09 02:33:43;;;;;;;1.60;1.50;;;;;;;21.04;42.17;98493.16;1783312;78;28199;-70
2022/01/09 02:36:33;;;;;;;1.65;1.40;;;;;;;21.01;42.16;98493.64;1763761;80;28536;-68
2022/01/09 02:39:21;;;;;;;1.50;1.30;;;;;;;21.02;42.16;98495.30;1748826;80;28474;-70
2022/01/09 02:42:23;;;;;;;1.40;1.30;;;;;;;21.00;42.08;98492.84;1817229;78;28598;-68
2022/01/09 02:45:30;;;;;;;1.20;1.20;;;;;;;20.99;42.15;98499.36;1779551;80;28385;-67
2022/01/09 02:48:21;;;;;;;1.55;1.40;;;;;;;20.99;42.08;98499.89;1783071;78;28228;-68
2022/01/09 02:51:18;;;;;;;1.45;1.35;;;;;;;21.01;42.07;98495.00;1770149;79;28320;-68
2022/01/09 02:55:05;;;;;;;1.50;1.40;;;;;;;21.01;42.01;98482.72;1761566;79;28244;-67
2022/01/09 02:56:52;;;;;;;1.40;1.30;;;;;;;21.04;42.00;98495.38;1780503;79;28321;-69
2022/01/09 02:59:42;;;;;;;1.23;1.23;;;;;;;21.05;41.95;98496.22;1779478;80;28562;-67
2022/01/09 03:02:30;;;;;;;1.50;1.40;;;;;;;21.02;41.92;98493.94;1775319;79;28512;-67
2022/01/09 03:05:20;;;;;;;1.40;1.30;;;;;;;21.04;41.90;98496.75;1776227;80;28436;-67
2022/01/09 03:08:09;;;;;;;1.50;1.40;;;;;;;21.04;41.90;98501.34;1769233;80;28429;-68
2022/01/09 03:10:57;;;;;;;1.67;1.20;;;;;;;21.05;41.90;98494.85;1759563;80;28392;-71
2022/01/09 03:13:46;;;;;;;1.30;1.30;;;;;;;21.06;41.86;98501.95;1774596;79;28461;-70
2022/01/09 03:16:35;;;;;;;1.30;1.20;;;;;;;21.06;41.84;98517.80;1784347;78;28363;-69
2022/01/09 03:19:24;;;;;;;1.70;1.20;;;;;;;21.08;41.86;98521.64;1759694;80;28390;-68
2022/01/09 03:22:12;;;;;;;1.20;1.20;;;;;;;21.08;41.82;98516.17;1769088;79;28409;-68
2022/01/09 03:25:01;;;;;;;1.30;1.20;;;;;;;21.10;41.77;98536.70;1815547;78;28212;-68
2022/01/09 03:27:51;;;;;;;1.20;1.20;;;;;;;21.06;41.80;98519.70;1808205;78;28301;-69
2022/01/09 03:30:39;;;;;;;1.30;1.30;;;;;;;21.06;41.81;98535.55;1825857;76;28168;-68
2022/01/09 03:33:28;;;;;;;1.30;1.25;;;;;;;21.07;41.78;98537.22;1819539;77;28310;-67
2022/01/09 03:36:17;;;;;;;1.37;1.27;;;;;;;21.09;41.77;98541.89;1813457;77;28181;-68
2022/01/09 03:39:07;;;;;;;1.20;1.20;;;;;;;21.13;41.72;98543.57;1823170;78;28223;-67
2022/01/09 03:41:58;;;;;;;1.30;1.20;;;;;;;21.16;41.64;98535.73;1837604;76;28190;-67
2022/01/09 03:44:45;;;;;;;1.10;1.10;;;;;;;21.17;41.56;98547.45;1833364;76;28241;-66
2022/01/09 03:47:39;;;;;;;1.10;1.10;;;;;;;21.16;41.60;98540.36;1839217;76;28284;-68
2022/01/09 03:50:27;;;;;;;1.20;1.10;;;;;;;21.16;41.59;98537.09;1832696;77;28189;-67
2022/01/09 03:53:16;;;;;;;1.20;1.10;;;;;;;21.19;41.52;98543.97;1825902;77;28337;-69
2022/01/09 03:56:04;;;;;;;1.20;1.20;;;;;;;21.20;41.54;98536.05;1814930;76;28313;-68
2022/01/09 03:59:11;;;;;;;1.20;1.20;;;;;;;21.22;41.49;98539.34;1833057;77;28272;-68
2022/01/09 04:02:00;;;;;;;0.90;0.90;;;;;;;21.25;41.42;98538.86;1834810;76;28312;-67
2022/01/09 04:04:49;;;;;;;1.22;1.12;;;;;;;21.24;41.43;98542.66;1831546;76;28095;-66
2022/01/09 04:07:38;;;;;;;0.90;0.90;;;;;;;21.24;41.39;98561.24;1829399;76;28686;-67
2022/01/09 04:10:29;;;;;;;1.12;1.07;;;;;;;21.25;41.43;98552.52;1816840;77;28167;-67
2022/01/09 04:13:17;;;;;;;1.40;1.25;;;;;;;21.26;41.42;98558.28;1823093;76;28211;-67
2022/01/09 04:16:06;;;;;;;1.67;1.10;;;;;;;21.23;41.37;98539.13;1837391;77;28250;-67
2022/01/09 04:18:54;;;;;;;1.00;1.00;;;;;;;21.27;41.36;98523.88;1825762;77;28226;-69
2022/01/09 04:21:43;;;;;;;0.90;0.90;;;;;;;21.29;41.31;98516.80;1813184;77;28362;-69
2022/01/09 04:24:31;;;;;;;1.07;1.07;;;;;;;21.30;41.26;98529.39;1819463;77;28209;-68
2022/01/09 04:27:20;;;;;;;1.40;1.10;;;;;;;21.30;41.27;98551.23;1822877;78;28228;-68
2022/01/09 04:30:08;;;;;;;1.20;1.20;;;;;;;21.29;41.24;98538.11;1825884;77;28360;-67
2022/01/09 04:32:57;;;;;;;1.00;1.00;;;;;;;21.31;41.19;98527.77;1837522;76;28136;-67
2022/01/09 04:35:45;;;;;;;1.00;1.00;;;;;;;21.32;41.14;98528.06;1808469;76;28164;-68
2022/01/09 04:38:34;;;;;;;1.22;1.12;;;;;;;21.34;41.10;98553.75;1806867;76;28249;-68
2022/01/09 04:41:23;;;;;;;1.00;1.00;;;;;;;21.33;41.03;98543.36;1820912;76;28258;-67
2022/01/09 04:44:12;;;;;;;1.00;1.00;;;;;;;21.35;41.04;98552.69;1827900;76;28218;-67
2022/01/09 04:47:09;;;;;;;0.93;0.93;;;;;;;21.33;41.09;98550.75;1837830;76;28236;-67
2022/01/09 04:49:50;;;;;;;1.00;0.80;;;;;;;21.37;40.96;98577.02;1807911;78;28245;-67
2022/01/09 04:52:40;;;;;;;1.87;0.90;;;;;;;21.37;40.97;98633.02;1828155;77;28264;-69
2022/01/09 04:55:30;;;;;;;1.00;0.90;;;;;;;21.35;40.91;98611.42;1823990;76;28350;-69
2022/01/09 04:58:19;;;;;;;0.88;0.88;;;;;;;21.32;41.01;98637.33;1842532;77;28186;-68
2022/01/09 05:01:07;;;;;;;0.80;0.80;;;;;;;21.35;40.90;98643.64;1811736;77;28314;-68
2022/01/09 05:03:56;;;;;;;1.00;1.00;;;;;;;21.35;40.92;98625.08;1811307;78;28213;-69
2022/01/09 05:07:03;;;;;;;0.90;0.90;;;;;;;21.37;40.85;98613.89;1810908;77;28146;-68
2022/01/09 05:09:52;;;;;;;0.90;0.90;;;;;;;21.35;40.85;98622.34;1819948;76;28191;-67
2022/01/09 05:12:41;;;;;;;0.90;0.90;;;;;;;21.36;40.86;98626.72;1846129;76;31113;-67
2022/01/09 05:15:29;;;;;;;0.88;0.88;;;;;;;21.38;40.81;98625.12;1846356;76;28144;-67
2022/01/09 05:18:18;;;;;;;0.95;0.90;;;;;;;21.37;40.76;98610.63;1810040;78;28219;-69
2022/01/09 05:21:06;;;;;;;0.70;0.70;;;;;;;21.40;40.75;98602.48;1821841;76;28782;-67
2022/01/09 05:23:55;;;;;;;0.70;0.70;;;;;;;21.39;40.73;98604.38;1825588;78;28170;-67
2022/01/09 05:26:43;;;;;;;0.70;0.70;;;;;;;21.39;40.76;98605.75;1810200;77;28249;-68
2022/01/09 05:29:32;;;;;;;0.70;0.70;;;;;;;21.35;40.75;98608.13;1819565;77;28273;-67
2022/01/09 05:32:21;;;;;;;0.90;0.80;;;;;;;21.37;40.80;98610.63;1834074;77;28128;-68
2022/01/09 05:35:10;;;;;;;1.10;0.88;;;;;;;21.38;40.81;98621.03;1826106;76;28150;-68
2022/01/09 05:37:58;;;;;;;0.85;0.85;;;;;;;21.38;40.72;98615.00;1843486;77;28181;-68
2022/01/09 05:40:47;;;;;;;1.00;0.70;;;;;;;21.36;40.76;98617.16;1822068;78;28102;-68
2022/01/09 05:43:39;;;;;;;0.90;0.90;;;;;;;21.38;40.76;98625.93;1816653;76;28291;-66
2022/01/09 05:46:27;;;;;;;0.72;0.72;;;;;;;21.37;40.75;98627.02;1825822;76;28231;-67
2022/01/09 05:49:16;;;;;;;0.80;0.80;;;;;;;21.36;40.74;98623.98;1837494;77;28298;-67
2022/01/09 05:52:05;;;;;;;0.80;0.80;;;;;;;21.38;40.73;98627.30;1821361;77;28225;-68
2022/01/09 05:54:55;;;;;;;0.80;0.80;;;;;;;21.40;40.69;98627.07;1810443;76;28187;-68
2022/01/09 05:57:45;;;;;;;1.00;0.80;;;;;;;21.41;40.66;98622.71;1821238;76;28270;-68
2022/01/09 06:00:33;;;;;;;0.78;0.78;;;;;;;21.41;40.66;98617.25;1830467;76;28079;-68
2022/01/09 06:03:21;;;;;;;0.70;0.70;;;;;;;21.43;40.62;98610.99;1824932;77;28146;-69
2022/01/09 06:06:10;;;;;;;0.70;0.70;;;;;;;21.39;40.67;98614.47;1822501;77;28651;-67
2022/01/09 06:08:59;;;;;;;0.70;0.70;;;;;;;21.41;40.66;98615.05;1827877;77;28125;-69
2022/01/09 06:11:48;;;;;;;0.75;0.75;;;;;;;21.39;40.64;98607.11;1815432;77;28265;-66
2022/01/09 06:14:54;;;;;;;0.70;0.70;;;;;;;21.40;40.65;98615.58;1786968;78;28573;-67
2022/01/09 06:17:45;;;;;;;0.85;0.85;;;;;;;21.38;40.68;98627.30;1773414;80;28398;-68
2022/01/09 06:20:34;;;;;;;0.80;0.80;;;;;;;21.38;40.66;98623.77;1775656;80;28428;-68
2022/01/09 06:23:23;;;;;;;0.75;0.75;;;;;;;21.35;40.62;98625.08;1771641;79;28198;-68
2022/01/09 06:26:11;;;;;;;1.47;0.70;;;;;;;21.37;40.69;98627.55;1758293;79;28361;-69
2022/01/09 06:29:01;;;;;;;0.90;0.90;;;;;;;21.42;40.57;98619.45;1759552;81;28247;-67
2022/01/09 06:31:52;;;;;;;0.70;0.70;;;;;;;21.40;40.54;98611.48;1777150;79;28268;-67
2022/01/09 06:34:43;;;;;;;0.70;0.70;;;;;;;21.38;40.58;98621.83;1824221;78;28174;-67
2022/01/09 06:37:31;;;;;;;1.00;0.70;;;;;;;21.37;40.61;98622.92;1841516;77;28273;-66
2022/01/09 06:40:21;;;;;;;1.45;0.70;;;;;;;21.37;40.64;98620.73;1835182;76;28156;-66
2022/01/09 06:43:10;;;;;;;0.72;0.72;;;;;;;21.39;40.58;98611.21;1840575;76;28205;-66
2022/01/09 06:45:58;;;;;;;0.62;0.62;;;;;;;21.41;40.53;98615.05;1828258;76;28240;-66
2022/01/09 06:48:48;;;;;;;0.80;0.50;;;;;;;21.39;40.54;98618.57;1836973;76;28121;-68
2022/01/09 06:51:37;;;;;;;0.70;0.70;;;;;;;21.39;40.54;98632.23;1826932;77;28241;-69
2022/01/09 06:54:25;;;;;;;0.70;0.70;;;;;;;21.42;40.54;98631.74;1837443;77;28244;-68
2022/01/09 06:57:15;;;;;;;0.60;0.60;;;;;;;21.40;40.50;98616.94;1825932;77;28549;-67
2022/01/09 07:00:06;;;;;;;0.50;0.50;;;;;;;21.41;40.52;98624.61;1821772;77;28247;-67
2022/01/09 07:02:54;;;;;;;0.68;0.60;;;;;;;21.39;40.51;98651.35;1836319;77;28177;-68
2022/01/09 07:05:43;;;;;;;0.72;0.50;;;;;;;21.39;40.49;98622.67;1826082;77;31150;-68
2022/01/09 07:08:33;;;;;;;0.90;0.60;;;;;;;21.41;40.49;98629.55;1829361;76;28108;-67
2022/01/09 07:11:21;;;;;;;0.50;0.50;;;;;;;21.40;40.47;98627.88;1825342;77;28190;-67
2022/01/09 07:14:10;;;;;;;0.60;0.60;;;;;;;21.36;40.49;98617.16;1826034;76;28088;-69
2022/01/09 07:16:58;;;;;;;0.70;0.70;;;;;;;21.37;40.46;98624.83;1825023;77;28243;-66
2022/01/09 07:19:47;;;;;;;0.53;0.53;;;;;;;21.37;40.40;98622.09;1819876;78;28220;-67
2022/01/09 07:22:35;;;;;;;0.80;0.68;;;;;;;21.35;40.47;98625.08;1825762;76;28310;-67
2022/01/09 07:25:25;;;;;;;0.70;0.70;;;;;;;21.38;40.42;98610.91;1814281;77;28219;-66
2022/01/09 07:28:13;;;;;;;0.60;0.60;;;;;;;21.41;40.33;98615.05;1822064;77;28299;-67
2022/01/09 07:31:02;;;;;;;0.50;0.50;;;;;;;21.40;40.38;98621.05;1824943;76;28128;-66
2022/01/09 07:33:52;;;;;;;0.60;0.60;;;;;;;21.39;40.34;98612.58;1824673;77;28179;-67
2022/01/09 07:36:40;;;;;;;0.55;0.55;;;;;;;21.34;40.41;98620.15;1851840;76;28154;-67
2022/01/09 07:39:29;;;;;;;0.80;0.78;;;;;;;21.36;40.37;98614.42;1827751;77;28266;-66
2022/01/09 07:42:18;;;;;;;0.60;0.60;;;;;;;21.38;40.40;98619.10;1819592;76;28319;-67
2022/01/09 07:45:07;;;;;;;0.53;0.53;;;;;;;21.34;40.41;98619.31;1823566;76;28068;-67
2022/01/09 07:47:58;;;;;;;0.60;0.60;;;;;;;21.39;40.35;98628.13;1825736;76;28315;-68
2022/01/09 07:50:48;;;;;;;0.68;0.68;;;;;;;21.38;40.36;98627.30;1832383;76;28596;-67
2022/01/09 07:53:36;;;;;;;0.50;0.50;;;;;;;21.37;40.37;98630.29;1824082;77;28109;-70
2022/01/09 07:56:25;;;;;;;0.70;0.70;;;;;;;21.38;40.33;98622.39;1825070;77;31275;-67
2022/01/09 07:59:13;;;;;;;0.50;0.50;;;;;;;21.37;40.36;98616.63;1807726;76;28263;-66
2022/01/09 08:02:02;;;;;;;0.50;0.50;;;;;;;21.37;40.34;98619.36;1786220;79;28235;-66
2022/01/09 08:04:51;;;;;;;0.50;0.50;;;;;;;21.40;40.34;98629.80;1773607;80;28345;-67
2022/01/09 08:07:41;;;;;;;1.32;0.60;;;;;;;21.34;40.28;98626.98;1779924;80;28304;-66
2022/01/09 08:10:32;;;;;;;1.00;0.60;;;;;;;21.36;40.30;98629.45;1753449;79;28396;-66
2022/01/09 08:13:21;;;;;;;0.62;0.53;;;;;;;21.37;40.35;98642.58;1767890;80;28477;-67
2022/01/09 08:16:11;;;;;;;0.57;0.57;;;;;;;21.38;40.26;98642.32;1775534;79;28263;-68
2022/01/09 08:19:00;;;;;;;0.60;0.60;;;;;;;21.35;40.30;98644.20;1747762;80;28399;-68
2022/01/09 08:21:50;;;;;;;0.60;0.60;;;;;;;21.36;40.29;98634.91;1733337;82;28451;-68
2022/01/09 08:24:40;;;;;;;0.50;0.50;;;;;;;21.35;40.30;98625.08;1716062;82;28550;-66
2022/01/09 08:27:28;;;;;;;0.72;0.50;;;;;;;21.37;40.27;98631.13;1720967;82;33878;-67
2022/01/09 08:30:24;;;;;;;0.75;0.50;;;;;;;21.37;40.22;98612.00;1732631;82;28531;-68
2022/01/09 08:33:08;;;;;;;0.53;0.53;;;;;;;21.35;40.24;98614.16;1714427;82;28503;-67
2022/01/09 08:35:56;;;;;;;0.57;0.57;;;;;;;21.38;40.21;98608.73;1733524;82;28539;-67
2022/01/09 08:38:48;;;;;;;0.80;0.50;;;;;;;21.35;40.21;98606.77;1722233;82;28435;-66
2022/01/09 08:41:38;;;;;;;0.53;0.53;;;;;;;21.36;40.24;98606.23;1740475;82;28435;-66
2022/01/09 08:44:27;;;;;;;0.30;0.30;;;;;;;21.37;40.19;98605.17;1723046;81;28512;-66
2022/01/09 08:47:17;;;;;;;0.50;0.50;;;;;;;21.39;40.24;98613.11;1732477;82;28571;-67
2022/01/09 08:50:08;;;;;;;0.50;0.50;;;;;;;21.35;40.23;98620.98;1714765;82;28631;-67
2022/01/09 08:52:57;;;;;;;0.57;0.57;;;;;;;21.34;40.26;98613.85;1731000;82;28417;-69
2022/01/09 08:55:45;;;;;;;0.53;0.53;;;;;;;21.35;40.22;98614.16;1719065;82;28523;-68
2022/01/09 08:58:33;;;;;;;0.40;0.40;;;;;;;21.34;40.24;98622.05;1731240;82;28469;-68
2022/01/09 09:01:22;;;;;;;0.60;0.60;;;;;;;21.34;40.24;98619.31;1731256;82;28543;-68
2022/01/09 09:04:11;;;;;;;0.40;0.40;;;;;;;21.38;40.20;98609.54;1719429;82;28534;-67
2022/01/09 09:07:00;;;;;;;0.53;0.53;;;;;;;21.35;40.26;98619.05;1728495;82;28629;-68
2022/01/09 09:09:48;;;;;;;0.60;0.60;;;;;;;21.37;40.21;98624.30;1731321;82;28610;-67
2022/01/09 09:12:37;;;;;;;1.05;0.60;;;;;;;21.39;40.19;98608.48;1719132;82;28514;-69
2022/01/09 09:15:26;;;;;;;0.50;0.50;;;;;;;21.19;39.58;98610.88;1737544;80;28562;-68
2022/01/09 09:18:14;;;;;;;0.70;0.40;;;;;;;21.24;39.86;98613.66;1762751;80;28282;-69
2022/01/09 09:21:02;;;;;;;0.85;0.50;;;;;;;21.23;39.94;98622.95;1781257;79;28282;-67
2022/01/09 09:23:50;;;;;;;0.62;0.62;;;;;;;21.23;39.83;98616.13;1821293;76;28292;-68
2022/01/09 09:26:39;;;;;;;1.20;0.85;;;;;;;21.22;39.83;98621.28;1800873;77;28207;-67
2022/01/09 09:29:28;;;;;;;0.85;0.53;;;;;;;21.24;39.77;98619.13;1825732;77;28241;-67
2022/01/09 09:32:16;;;;;;;1.80;0.60;;;;;;;21.23;39.76;98616.13;1823614;77;28240;-67
2022/01/09 09:35:06;;;;;;;0.87;0.80;;;;;;;21.25;39.70;98618.91;1822284;76;28169;-67
2022/01/09 09:37:56;;;;;;;1.00;0.80;;;;;;;21.23;39.62;98622.42;1817990;77;28193;-67
2022/01/09 09:40:46;;;;;;;1.85;0.80;;;;;;;21.24;39.60;98622.70;1812692;78;28231;-67
2022/01/09 09:43:36;;;;;;;1.70;0.70;;;;;;;21.23;39.57;98618.86;1822592;77;28353;-66
2022/01/09 09:46:27;;;;;;;1.07;0.80;;;;;;;21.26;39.53;98615.08;1830459;76;28275;-66
2022/01/09 09:49:17;;;;;;;2.55;0.78;;;;;;;21.20;39.54;98600.22;1818397;77;28296;-66
2022/01/09 09:52:06;;;;;;;1.67;0.77;;;;;;;21.21;39.57;98589.60;1823224;77;28176;-69
2022/01/09 09:54:58;;;;;;;4.03;0.90;;;;;;;21.23;39.49;98594.28;1819007;77;28188;-69
2022/01/09 09:57:48;;;;;;;1.05;0.90;;;;;;;21.25;39.48;98593.48;1852377;76;28126;-69
2022/01/09 10:00:39;;;;;;;0.90;0.70;;;;;;;21.25;39.37;98582.56;1831374;75;28191;-68
2022/01/09 10:03:32;;;;;;;2.00;0.80;;;;;;;21.26;39.36;98585.59;1843530;76;28305;-68
2022/01/09 10:06:48;;;;;;;0.90;0.55;;;;;;;21.24;39.37;98598.64;1805472;77;28200;-66
2022/01/09 10:10:03;;;;;;;1.67;0.87;;;;;;;21.24;39.40;98592.66;1789042;79;28307;-68
2022/01/09 10:12:56;;;;;;;3.50;0.90;;;;;;;21.18;39.49;98606.47;1778055;79;28564;-68
2022/01/09 10:15:54;;;;;;;1.82;0.90;;;;;;;21.16;39.48;98614.92;1782968;79;28376;-68
2022/01/09 10:18:45;;;;;;;2.72;0.80;;;;;;;21.19;39.47;98619.06;1777632;79;28519;-67
2022/01/09 10:21:34;;;;;;;2.20;0.80;;;;;;;21.20;39.44;98612.52;1788616;79;28339;-68
2022/01/09 10:24:24;;;;;;;0.98;0.70;;;;;;;21.20;39.48;98622.07;1780345;79;28411;-65
2022/01/09 10:27:14;;;;;;;4.35;0.93;;;;;;;21.25;39.62;98613.44;1787323;79;28460;-67
2022/01/09 10:30:06;;;;;;;2.90;1.00;;;;;;;21.25;39.61;98622.16;1781405;79;28314;-68
2022/01/09 10:32:57;;;;;;;1.62;0.88;;;;;;;21.22;39.64;98626.22;1807750;78;28294;-65
2022/01/09 10:35:49;;;;;;;1.57;0.70;;;;;;;21.18;39.81;98620.13;1794997;79;28463;-66
2022/01/09 10:38:39;;;;;;;1.17;1.02;;;;;;;21.16;39.99;98614.92;1786765;79;28396;-67
2022/01/09 10:41:47;;;;;;;1.10;0.83;;;;;;;21.19;39.91;98610.31;1785985;79;28337;-66
2022/01/09 10:44:39;;;;;;;0.88;0.62;;;;;;;21.19;39.93;98608.14;1800499;79;28474;-66
2022/01/09 10:47:30;;;;;;;1.55;0.90;;;;;;;21.19;39.93;98608.14;1796025;79;28349;-66
2022/01/09 10:50:30;;;;;;;2.33;0.85;;;;;;;21.21;39.95;98609.52;1801104;79;28352;-66
2022/01/09 10:53:26;;;;;;;1.55;0.88;;;;;;;21.25;39.85;98610.71;1794770;79;32409;-67
2022/01/09 10:56:24;;;;;;;2.67;0.80;;;;;;;21.27;39.85;98611.81;1801049;79;28345;-66
2022/01/09 10:59:12;;;;;;;1.85;0.85;;;;;;;21.28;39.82;98595.73;1797922;79;28438;-68
2022/01/09 11:02:03;;;;;;;0.70;0.70;;;;;;;21.33;39.79;98602.66;1781549;78;28395;-68
2022/01/09 11:04:51;;;;;;;2.87;1.00;;;;;;;21.32;39.70;98602.34;1804295;78;28188;-69
2022/01/09 11:07:41;;;;;;;2.45;0.80;;;;;;;21.28;39.61;98606.66;1813580;77;28171;-67
2022/01/09 11:10:32;;;;;;;1.10;0.70;;;;;;;21.29;39.56;98601.47;1837652;77;28288;-67
2022/01/09 11:13:22;;;;;;;1.10;0.90;;;;;;;21.28;39.46;98614.29;1815575;76;28285;-67
2022/01/09 11:19:23;;;;;;;0.78;0.70;;;;;;;21.39;38.93;98596.72;1822297;78;28325;-67
2022/01/09 11:22:12;;;;;;;2.27;0.88;;;;;;;21.36;38.77;98592.57;1819308;77;28212;-67
2022/01/09 11:25:13;;;;;;;0.70;0.70;;;;;;;21.34;38.53;98586.00;1831600;77;28087;-69
2022/01/09 11:28:10;;;;;;;2.35;0.80;;;;;;;21.34;38.35;98583.80;1782491;79;31273;-68
2022/01/09 11:31:27;;;;;;;1.10;0.80;;;;;;;21.30;38.24;98585.38;1764394;80;28421;-66
2022/01/09 11:34:18;;;;;;;1.10;1.00;;;;;;;21.31;38.08;98572.83;1833684;77;28307;-67
2022/01/09 11:37:25;;;;;;;0.97;0.87;;;;;;;21.27;37.91;98567.59;1902138;73;27999;-66
2022/01/09 11:40:34;;;;;;;0.83;0.70;;;;;;;21.23;37.78;98562.87;1858590;76;28294;-66
2022/01/09 11:43:23;;;;;;;2.47;1.07;;;;;;;21.20;37.78;98559.25;1908700;74;28069;-66
2022/01/09 11:46:11;;;;;;;5.30;1.20;;;;;;;21.13;37.76;98559.42;1907690;74;28094;-66
2022/01/09 11:49:04;;;;;;;1.95;1.40;;;;;;;21.14;37.63;98565.72;1909155;73;28021;-66
2022/01/09 11:51:59;;;;;;;1.97;1.30;;;;;;;21.11;37.55;98544.36;1895254;74;28021;-68
2022/01/09 11:55:01;;;;;;;1.50;1.40;;;;;;;21.08;37.47;98540.75;1894342;74;28157;-69
2022/01/09 11:57:49;;;;;;;1.67;1.57;;;;;;;21.07;37.33;98532.29;1915218;74;28036;-70
2022/01/09 12:00:42;;;;;;;2.00;1.73;;;;;;;21.04;37.25;98539.57;1900944;73;28122;-66
2022/01/09 12:03:37;;;;;;;2.10;1.80;;;;;;;20.96;37.33;98524.95;1910241;73;28176;-67
2022/01/09 12:06:28;;;;;;;3.45;2.10;;;;;;;20.95;37.44;98531.50;1911323;74;28038;-66
2022/01/09 12:09:19;;;;;;;2.55;2.00;;;;;;;20.96;37.52;98529.04;1903906;74;28163;-68
2022/01/09 12:12:15;;;;;;;4.12;2.02;;;;;;;21.02;37.57;98521.25;1907911;74;28150;-71
2022/01/09 12:15:08;;;;;;;2.83;2.12;;;;;;;20.98;37.67;98527.72;1895517;74;28535;-69
2022/01/09 12:17:58;;;;;;;4.40;2.40;;;;;;;20.96;37.77;98515.39;1919685;74;28208;-69
2022/01/09 12:20:46;;;;;;;3.85;2.33;;;;;;;20.93;37.89;98507.19;1908419;74;28201;-70
2022/01/09 12:23:35;;;;;;;4.62;2.42;;;;;;;20.95;37.93;98508.30;1895381;74;28233;-69
2022/01/09 12:26:29;;;;;;;4.90;2.37;;;;;;;20.92;37.93;98508.25;1901428;74;27846;-69
2022/01/09 12:29:46;;;;;;;3.97;2.20;;;;;;;20.95;37.98;98499.58;1911738;74;28089;-69
2022/01/09 12:32:44;;;;;;;4.87;2.80;;;;;;;20.93;38.07;98500.89;1901703;74;28186;-69
2022/01/09 12:35:32;;;;;;;3.52;2.70;;;;;;;20.89;38.14;98488.79;1908870;74;28104;-68
2022/01/09 12:38:23;;;;;;;5.00;2.70;;;;;;;20.86;38.21;98491.51;1910877;74;28135;-68
2022/01/09 12:41:29;;;;;;;3.72;2.58;;;;;;;20.88;38.26;98486.63;1878720;74;28096;-68
2022/01/09 12:44:16;;;;;;;5.60;2.90;;;;;;;20.90;38.28;98483.63;1898955;74;28136;-67
2022/01/09 12:47:06;;;;;;;3.50;2.80;;;;;;;20.89;38.36;98483.33;1899745;73;28916;-68
2022/01/09 12:50:02;;;;;;;4.62;2.58;;;;;;;20.90;38.30;98474.08;1883876;74;28289;-70
2022/01/09 12:52:50;;;;;;;4.95;2.80;;;;;;;20.91;38.34;98475.19;1907457;73;28028;-69
2022/01/09 12:56:01;;;;;;;4.47;2.55;;;;;;;20.91;38.36;98466.20;1902661;73;28120;-69
2022/01/09 12:58:56;;;;;;;3.25;2.55;;;;;;;20.90;38.42;98467.26;1895940;74;28223;-68
2022/01/09 13:01:48;;;;;;;3.10;2.67;;;;;;;20.84;38.56;98469.63;1902507;73;28185;-76
2022/01/09 13:04:40;;;;;;;3.20;2.47;;;;;;;20.83;38.62;98463.34;1900461;73;28151;-84
2022/01/09 13:07:28;;;;;;;4.97;3.00;;;;;;;20.87;38.63;98463.12;1897098;74;28173;-78
2022/01/09 13:10:17;;;;;;;5.45;2.77;;;;;;;20.89;38.69;98464.22;1911309;73;28144;-84
2022/01/09 13:13:08;;;;;;;3.45;2.77;;;;;;;20.89;38.69;98465.59;1908810;73;28060;-83
2022/01/09 13:15:57;;;;;;;5.75;2.60;;;;;;;20.89;38.81;98462.86;1896651;74;28152;-85
2022/01/09 13:18:52;;;;;;;3.92;2.80;;;;;;;20.87;38.93;98461.75;1903068;73;28086;-74
2022/01/09 13:21:45;;;;;;;4.08;2.70;;;;;;;20.89;39.01;98464.22;1894222;74;28144;-73
2022/01/09 13:24:33;;;;;;;5.65;3.10;;;;;;;20.89;39.12;98465.59;1909670;73;28234;-72
2022/01/09 13:27:21;;;;;;;4.70;2.80;;;;;;;20.87;39.25;98460.39;1897525;74;28068;-78